Time;durP1;ratioP1;P1;durP2;ratioP2;P2;SDS_P1;SDS_P2;PMS_P1;PMS_P2;Temp;Humidity;BMP_temperature;BMP_pressure;BME280_temperature;BME280_humidity;BME280_pressure;Samples;Min_cycle;Max_cycle;Signal;HPM_P1;HPM_P2
2021/11/14 00:00:00;;;;;;;8.45;6.18;;;;;;;;;;5110904;28;20224;-85
2021/11/14 00:03:17;;;;;;;5.95;5.22;;;;;;;;;;5110459;28;20188;-85
2021/11/14 00:06:12;;;;;;;6.82;5.90;;;;;;;;;;5110687;28;20180;-85
2021/11/14 00:08:40;;;;;;;6.40;5.68;;;;;;;;;;5110724;28;20219;-86
2021/11/14 00:11:37;;;;;;;7.80;7.00;;;;;;;;;;5111025;28;20571;-86
2021/11/14 00:14:08;;;;;;;6.53;5.85;;;;;;;;;;5110914;28;20554;-85
2021/11/14 00:16:37;;;;;;;7.07;5.90;;;;;;;;;;5111383;28;20219;-86
2021/11/14 00:19:20;;;;;;;9.57;8.57;;;;;;;;;;5113026;28;20296;-86
2021/11/14 00:25:29;;;;;;;9.43;7.55;;;;;;;;;;5112881;28;20236;-86
2021/11/14 00:28:06;;;;;;;9.90;8.38;;;;;;;;;;5112675;28;20219;-86
2021/11/14 00:30:45;;;;;;;7.40;6.00;;;;;;;;;;5114380;28;20659;-87
2021/11/14 00:33:25;;;;;;;9.52;7.75;;;;;;;;;;5114292;28;20180;-86
2021/11/14 00:35:55;;;;;;;8.82;6.70;;;;;;;;;;5114498;28;20215;-86
2021/11/14 00:38:24;;;;;;;7.72;6.72;;;;;;;;;;5113863;28;20310;-86
2021/11/14 00:41:05;;;;;;;8.75;7.85;;;;;;;;;;5114385;28;20200;-87
2021/11/14 00:43:53;;;;;;;6.80;6.20;;;;;;;;;;5113825;28;20251;-86
2021/11/14 00:46:25;;;;;;;5.63;4.97;;;;;;;;;;5114194;28;20203;-85
2021/11/14 00:49:03;;;;;;;5.35;4.85;;;;;;;;;;5116616;28;20218;-87
2021/11/14 00:51:34;;;;;;;4.28;3.88;;;;;;;;;;5117933;28;20206;-86
2021/11/14 00:54:14;;;;;;;4.60;3.83;;;;;;;;;;5118120;28;20626;-86
2021/11/14 00:56:58;;;;;;;5.50;5.00;;;;;;;;;;5118006;28;20203;-86
2021/11/14 01:00:13;;;;;;;4.88;4.40;;;;;;;;;;5096694;28;20216;-85
2021/11/14 01:03:01;;;;;;;5.28;4.78;;;;;;;;;;5095959;28;20195;-86
2021/11/14 01:05:49;;;;;;;4.15;3.78;;;;;;;;;;5095852;28;20173;-86
2021/11/14 01:08:30;;;;;;;3.70;3.40;;;;;;;;;;5109876;28;20215;-87
2021/11/14 01:11:09;;;;;;;7.35;5.72;;;;;;;;;;5116083;28;20194;-85
2021/11/14 01:17:26;;;;;;;4.80;4.40;;;;;;;;;;5115553;28;20220;-86
2021/11/14 01:20:13;;;;;;;5.03;4.63;;;;;;;;;;5116161;28;20205;-86
2021/11/14 01:26:22;;;;;;;3.45;3.15;;;;;;;;;;5115906;28;20228;-86
2021/11/14 01:28:57;;;;;;;4.53;4.13;;;;;;;;;;5116109;28;20215;-86
2021/11/14 01:31:44;;;;;;;5.95;5.03;;;;;;;;;;5111500;28;20691;-87
2021/11/14 01:34:11;;;;;;;4.88;4.47;;;;;;;;;;5117576;28;20569;-88
2021/11/14 01:36:52;;;;;;;4.30;3.90;;;;;;;;;;5118032;28;20208;-87
2021/11/14 01:39:44;;;;;;;5.85;5.22;;;;;;;;;;5117323;28;20242;-87
2021/11/14 01:42:30;;;;;;;6.38;5.75;;;;;;;;;;5114485;28;20192;-87
2021/11/14 01:44:59;;;;;;;7.07;6.20;;;;;;;;;;5117885;28;20676;-87
2021/11/14 01:47:27;;;;;;;5.05;4.65;;;;;;;;;;5118069;28;20220;-87
2021/11/14 01:50:25;;;;;;;5.95;5.43;;;;;;;;;;5118241;28;20188;-86
2021/11/14 01:53:02;;;;;;;5.15;4.75;;;;;;;;;;5118282;28;20283;-87
2021/11/14 01:55:33;;;;;;;6.22;5.63;;;;;;;;;;5118650;28;20192;-86
2021/11/14 01:58:04;;;;;;;4.85;4.35;;;;;;;;;;5118743;28;20219;-87
2021/11/14 02:01:19;;;;;;;5.10;4.70;;;;;;;;;;5115487;28;20214;-86
2021/11/14 02:04:01;;;;;;;7.22;6.63;;;;;;;;;;5115155;28;20225;-86
2021/11/14 02:06:39;;;;;;;4.80;4.40;;;;;;;;;;5114843;28;20188;-86
2021/11/14 02:09:16;;;;;;;5.55;5.03;;;;;;;;;;5115179;28;20216;-86
2021/11/14 02:11:49;;;;;;;3.88;3.55;;;;;;;;;;5114843;28;20203;-85
2021/11/14 02:14:19;;;;;;;3.53;3.22;;;;;;;;;;5114697;28;20195;-86
2021/11/14 02:17:30;;;;;;;4.00;3.70;;;;;;;;;;5114543;28;20665;-86
2021/11/14 02:20:17;;;;;;;5.97;5.47;;;;;;;;;;5115227;28;20195;-85
2021/11/14 02:23:31;;;;;;;5.57;5.03;;;;;;;;;;5114514;28;20200;-86
2021/11/14 02:26:01;;;;;;;4.72;4.32;;;;;;;;;;5114349;28;20198;-85
2021/11/14 02:28:40;;;;;;;4.03;3.72;;;;;;;;;;5114171;28;20600;-85
2021/11/14 02:31:15;;;;;;;3.67;3.38;;;;;;;;;;5114260;28;20532;-86
2021/11/14 02:33:50;;;;;;;3.13;2.92;;;;;;;;;;5114436;28;20188;-85
2021/11/14 02:36:27;;;;;;;3.72;3.40;;;;;;;;;;5114310;28;20201;-86
2021/11/14 02:38:55;;;;;;;4.50;4.10;;;;;;;;;;5114142;28;20230;-86
2021/11/14 02:41:26;;;;;;;4.30;3.90;;;;;;;;;;5114178;28;20204;-86
2021/11/14 02:44:05;;;;;;;4.57;3.92;;;;;;;;;;5114186;28;20188;-86
2021/11/14 02:46:42;;;;;;;5.00;4.47;;;;;;;;;;5114184;28;20681;-85
2021/11/14 02:50:11;;;;;;;5.38;4.72;;;;;;;;;;5113918;28;20361;-86
2021/11/14 02:52:58;;;;;;;3.92;3.63;;;;;;;;;;5114342;28;20278;-86
2021/11/14 02:55:40;;;;;;;5.30;4.75;;;;;;;;;;5113974;28;20208;-85
2021/11/14 02:58:16;;;;;;;4.40;3.47;;;;;;;;;;5113783;28;20234;-86
2021/11/14 03:00:51;;;;;;;4.68;4.25;;;;;;;;;;5114407;28;20191;-85
2021/11/14 03:03:55;;;;;;;4.97;4.57;;;;;;;;;;5114198;28;20636;-86
2021/11/14 03:07:04;;;;;;;5.70;5.20;;;;;;;;;;5113877;28;20180;-86
2021/11/14 03:09:40;;;;;;;3.20;2.95;;;;;;;;;;5113736;28;20200;-86
2021/11/14 03:12:52;;;;;;;4.18;3.78;;;;;;;;;;5112632;28;20539;-85
2021/11/14 03:15:20;;;;;;;4.88;4.45;;;;;;;;;;5093504;28;20610;-86
2021/11/14 03:17:47;;;;;;;5.30;4.88;;;;;;;;;;5099765;28;20216;-86
2021/11/14 03:21:02;;;;;;;5.65;5.03;;;;;;;;;;5113626;28;20278;-86
2021/11/14 03:23:55;;;;;;;5.50;5.00;;;;;;;;;;5113624;28;20286;-85
2021/11/14 03:26:26;;;;;;;4.57;4.18;;;;;;;;;;5113636;28;20208;-86
2021/11/14 03:29:15;;;;;;;4.97;4.50;;;;;;;;;;5113299;28;20221;-87
2021/11/14 03:31:46;;;;;;;3.55;3.35;;;;;;;;;;5113509;28;20193;-85
2021/11/14 03:34:20;;;;;;;3.67;3.20;;;;;;;;;;5113547;28;20195;-86
2021/11/14 03:36:56;;;;;;;3.42;3.13;;;;;;;;;;5113423;28;20191;-87
2021/11/14 03:39:35;;;;;;;3.40;3.10;;;;;;;;;;5112883;28;20234;-86
2021/11/14 03:42:06;;;;;;;2.97;2.67;;;;;;;;;;5112861;28;20191;-88
2021/11/14 03:44:41;;;;;;;3.45;3.15;;;;;;;;;;5112678;28;20196;-85
2021/11/14 03:47:09;;;;;;;2.83;2.63;;;;;;;;;;5113191;28;20263;-85
2021/11/14 03:49:38;;;;;;;4.32;3.92;;;;;;;;;;5113470;28;20729;-85
2021/11/14 03:52:15;;;;;;;3.15;2.85;;;;;;;;;;5113115;28;20182;-86
2021/11/14 03:54:46;;;;;;;2.92;2.72;;;;;;;;;;5113201;28;20550;-85
2021/11/14 03:58:11;;;;;;;3.10;2.85;;;;;;;;;;5113339;28;20206;-86
2021/11/14 04:00:55;;;;;;;3.03;2.83;;;;;;;;;;5093188;28;20200;-86
2021/11/14 04:03:41;;;;;;;3.67;3.40;;;;;;;;;;5103826;28;20191;-86
2021/11/14 04:06:13;;;;;;;2.92;2.72;;;;;;;;;;5114033;28;20187;-86
2021/11/14 04:08:43;;;;;;;2.80;2.60;;;;;;;;;;5093193;28;20220;-86
2021/11/14 04:11:36;;;;;;;3.97;3.63;;;;;;;;;;5092943;28;20273;-86
2021/11/14 04:14:05;;;;;;;3.40;3.10;;;;;;;;;;5092933;28;20181;-86
2021/11/14 04:16:53;;;;;;;4.10;3.72;;;;;;;;;;5112656;28;20243;-86
2021/11/14 04:19:35;;;;;;;5.28;4.82;;;;;;;;;;5112651;28;20233;-86
2021/11/14 04:22:07;;;;;;;3.85;3.55;;;;;;;;;;5112959;28;20198;-86
2021/11/14 04:24:48;;;;;;;2.92;2.72;;;;;;;;;;5117225;28;20180;-85
2021/11/14 04:27:22;;;;;;;3.85;3.47;;;;;;;;;;5117065;28;20210;-86
2021/11/14 04:30:09;;;;;;;3.53;3.22;;;;;;;;;;5117192;28;20528;-86
2021/11/14 04:32:39;;;;;;;3.40;3.10;;;;;;;;;;5117036;28;20208;-86
2021/11/14 04:35:13;;;;;;;4.20;3.80;;;;;;;;;;5116760;28;20183;-86
2021/11/14 04:37:41;;;;;;;3.17;2.97;;;;;;;;;;5128831;22;20198;-84
2021/11/14 04:40:11;;;;;;;3.30;3.00;;;;;;;;;;5037549;28;20206;-82
2021/11/14 04:42:38;;;;;;;4.18;3.88;;;;;;;;;;5038815;28;20201;-82
2021/11/14 04:45:09;;;;;;;4.60;4.20;;;;;;;;;;5036673;28;20206;-84
2021/11/14 04:47:37;;;;;;;5.57;5.05;;;;;;;;;;5038939;28;20570;-82
2021/11/14 04:50:08;;;;;;;5.18;4.70;;;;;;;;;;5058636;28;20178;-84
2021/11/14 04:52:36;;;;;;;6.03;5.43;;;;;;;;;;5058859;28;20210;-82
2021/11/14 04:55:04;;;;;;;6.72;5.45;;;;;;;;;;5059405;28;20206;-82
2021/11/14 04:57:32;;;;;;;8.65;7.38;;;;;;;;;;5060424;28;20186;-82
2021/11/14 04:59:59;;;;;;;7.53;6.57;;;;;;;;;;5059353;28;20208;-82
2021/11/14 05:02:28;;;;;;;5.82;5.32;;;;;;;;;;5059008;28;20182;-84
2021/11/14 05:04:56;;;;;;;6.22;5.63;;;;;;;;;;5056628;28;20236;-84
2021/11/14 05:07:23;;;;;;;5.57;5.00;;;;;;;;;;5055479;28;20200;-84
2021/11/14 05:09:51;;;;;;;7.07;6.38;;;;;;;;;;5056458;28;20190;-84
2021/11/14 05:12:19;;;;;;;6.35;4.72;;;;;;;;;;5056401;28;20194;-82
2021/11/14 05:14:47;;;;;;;6.38;5.78;;;;;;;;;;5038957;28;20185;-82
2021/11/14 05:17:14;;;;;;;7.38;6.55;;;;;;;;;;5038642;28;20206;-82
2021/11/14 05:19:43;;;;;;;9.82;8.32;;;;;;;;;;5038707;28;20234;-82
2021/11/14 05:22:10;;;;;;;8.60;7.68;;;;;;;;;;5037537;28;20206;-84
2021/11/14 05:24:38;;;;;;;9.48;7.97;;;;;;;;;;5036924;28;20187;-82
2021/11/14 05:27:06;;;;;;;7.85;6.55;;;;;;;;;;5037118;28;20197;-83
2021/11/14 05:29:33;;;;;;;9.23;8.27;;;;;;;;;;5036947;28;20233;-82
2021/11/14 05:32:01;;;;;;;8.70;7.43;;;;;;;;;;5039444;28;20201;-82
2021/11/14 05:34:29;;;;;;;9.25;8.30;;;;;;;;;;5038137;28;20186;-82
2021/11/14 05:36:57;;;;;;;9.07;8.18;;;;;;;;;;5054618;28;20201;-82
2021/11/14 05:39:25;;;;;;;5.88;5.28;;;;;;;;;;5055295;28;20227;-82
2021/11/14 05:41:52;;;;;;;5.53;4.97;;;;;;;;;;5056295;28;20190;-82
2021/11/14 05:44:20;;;;;;;5.43;4.93;;;;;;;;;;5056861;28;20690;-82
2021/11/14 05:46:47;;;;;;;7.25;6.35;;;;;;;;;;5059245;28;20186;-82
2021/11/14 05:49:15;;;;;;;7.97;7.18;;;;;;;;;;5060931;28;20229;-83
2021/11/14 05:51:43;;;;;;;8.65;6.90;;;;;;;;;;5061191;28;20293;-83
2021/11/14 05:54:12;;;;;;;5.75;5.13;;;;;;;;;;5059572;28;20185;-83
2021/11/14 05:56:40;;;;;;;5.07;4.57;;;;;;;;;;5057870;28;20180;-83
2021/11/14 05:59:15;;;;;;;6.03;5.43;;;;;;;;;;5056738;28;20224;-83
2021/11/14 06:01:47;;;;;;;5.63;5.13;;;;;;;;;;5056868;28;20197;-83
2021/11/14 06:04:23;;;;;;;5.82;5.32;;;;;;;;;;5057057;28;20264;-83
2021/11/14 06:06:50;;;;;;;5.35;4.85;;;;;;;;;;5056472;28;20560;-83
2021/11/14 06:09:19;;;;;;;5.53;4.72;;;;;;;;;;5056097;28;20224;-83
2021/11/14 06:11:47;;;;;;;5.32;4.82;;;;;;;;;;5056343;28;20190;-83
2021/11/14 06:14:15;;;;;;;5.10;4.63;;;;;;;;;;5056161;28;20193;-83
2021/11/14 06:16:42;;;;;;;4.93;4.50;;;;;;;;;;5050894;28;20189;-83
2021/11/14 06:19:10;;;;;;;5.78;5.22;;;;;;;;;;5036558;28;20233;-83
2021/11/14 06:21:37;;;;;;;6.32;5.72;;;;;;;;;;5043277;28;20197;-83
2021/11/14 06:24:05;;;;;;;5.60;5.05;;;;;;;;;;5055960;28;20217;-83
2021/11/14 06:26:34;;;;;;;6.07;5.47;;;;;;;;;;5056425;28;20193;-83
2021/11/14 06:29:02;;;;;;;7.53;6.32;;;;;;;;;;5055674;28;20224;-83
2021/11/14 06:31:29;;;;;;;7.18;6.47;;;;;;;;;;5056567;28;20200;-83
2021/11/14 06:33:57;;;;;;;6.80;6.20;;;;;;;;;;5055748;28;20201;-83
2021/11/14 06:36:24;;;;;;;5.30;4.80;;;;;;;;;;5056693;28;20189;-83
2021/11/14 06:38:51;;;;;;;4.55;4.15;;;;;;;;;;5054946;28;20239;-83
2021/11/14 06:41:19;;;;;;;4.70;4.05;;;;;;;;;;5055330;28;20224;-83
2021/11/14 06:43:48;;;;;;;5.55;5.05;;;;;;;;;;5051088;28;20191;-83
2021/11/14 06:46:16;;;;;;;5.85;5.35;;;;;;;;;;5046524;28;20201;-83
2021/11/14 06:48:43;;;;;;;5.97;5.40;;;;;;;;;;5055443;28;20279;-83
2021/11/14 06:51:11;;;;;;;6.18;5.57;;;;;;;;;;5055913;28;20671;-84
2021/11/14 06:53:38;;;;;;;5.45;4.95;;;;;;;;;;5042872;28;20186;-84
2021/11/14 06:56:06;;;;;;;5.72;5.18;;;;;;;;;;5045773;28;20203;-83
2021/11/14 06:58:33;;;;;;;5.60;5.00;;;;;;;;;;5053160;28;20217;-83
2021/11/14 07:01:02;;;;;;;5.45;4.88;;;;;;;;;;5038283;28;20304;-83
2021/11/14 07:03:30;;;;;;;7.38;5.20;;;;;;;;;;5035216;28;20206;-83
2021/11/14 07:05:57;;;;;;;5.07;4.68;;;;;;;;;;5042610;28;20567;-84
2021/11/14 07:08:25;;;;;;;5.00;4.50;;;;;;;;;;5034693;28;20230;-84
2021/11/14 07:10:52;;;;;;;5.55;5.05;;;;;;;;;;5050627;28;20201;-84
2021/11/14 07:13:20;;;;;;;5.90;5.30;;;;;;;;;;5054738;28;20190;-84
2021/11/14 07:15:47;;;;;;;7.65;6.28;;;;;;;;;;5054011;28;20182;-83
2021/11/14 07:18:16;;;;;;;7.53;6.80;;;;;;;;;;5053089;28;20227;-80
2021/11/14 07:20:44;;;;;;;7.57;6.63;;;;;;;;;;5053507;28;20586;-82
2021/11/14 07:23:11;;;;;;;8.10;6.78;;;;;;;;;;5054198;28;20186;-84
2021/11/14 07:25:39;;;;;;;8.38;7.18;;;;;;;;;;5054576;28;20227;-84
2021/11/14 07:28:06;;;;;;;8.02;6.90;;;;;;;;;;5048142;28;20309;-86
2021/11/14 07:30:34;;;;;;;9.90;8.82;;;;;;;;;;5034228;28;20193;-81
2021/11/14 07:33:02;;;;;;;11.75;9.73;;;;;;;;;;5035076;28;20203;-83
2021/11/14 07:35:31;;;;;;;10.65;8.98;;;;;;;;;;5051115;28;20706;-84
2021/11/14 07:38:00;;;;;;;8.90;7.78;;;;;;;;;;5053738;28;20619;-84
2021/11/14 07:40:27;;;;;;;10.88;9.10;;;;;;;;;;5055512;28;20217;-82
2021/11/14 07:42:56;;;;;;;9.23;8.00;;;;;;;;;;5055325;28;20201;-82
2021/11/14 07:45:26;;;;;;;11.15;9.32;;;;;;;;;;5055455;28;20193;-83
2021/11/14 07:47:55;;;;;;;9.48;8.45;;;;;;;;;;5056076;28;20232;-84
2021/11/14 07:50:27;;;;;;;8.65;7.55;;;;;;;;;;5037569;28;20186;-83
2021/11/14 07:52:59;;;;;;;11.00;9.27;;;;;;;;;;5041820;28;20262;-84
2021/11/14 07:55:26;;;;;;;10.15;7.80;;;;;;;;;;5035845;28;20806;-83
2021/11/14 07:57:54;;;;;;;7.63;6.43;;;;;;;;;;5036159;28;20210;-83
2021/11/14 08:00:25;;;;;;;7.93;6.75;;;;;;;;;;5048396;28;20217;-83
2021/11/14 08:02:53;;;;;;;6.25;5.30;;;;;;;;;;5040879;28;20198;-82
2021/11/14 08:05:22;;;;;;;8.32;7.53;;;;;;;;;;5038556;28;20586;-82
2021/11/14 08:07:50;;;;;;;7.20;6.47;;;;;;;;;;5041303;28;20287;-85
2021/11/14 08:10:21;;;;;;;7.65;6.43;;;;;;;;;;5042945;28;20191;-86
2021/11/14 08:12:48;;;;;;;7.93;7.13;;;;;;;;;;5039525;28;20186;-86
2021/11/14 08:15:17;;;;;;;8.25;7.45;;;;;;;;;;5038388;28;20559;-85
2021/11/14 08:17:45;;;;;;;8.02;7.20;;;;;;;;;;5037025;28;20226;-86
2021/11/14 08:20:13;;;;;;;8.10;7.15;;;;;;;;;;5054819;28;20186;-83
2021/11/14 08:22:41;;;;;;;7.18;6.47;;;;;;;;;;5058772;28;20809;-86
2021/11/14 08:25:10;;;;;;;6.50;5.88;;;;;;;;;;5058772;28;20193;-84
2021/11/14 08:27:40;;;;;;;6.18;5.15;;;;;;;;;;5059391;28;20538;-85
2021/11/14 08:30:13;;;;;;;5.05;4.65;;;;;;;;;;5057539;28;20565;-83
2021/11/14 08:32:41;;;;;;;5.82;5.20;;;;;;;;;;5049147;28;20182;-87
2021/11/14 08:35:10;;;;;;;6.32;5.70;;;;;;;;;;5052315;28;20198;-83
2021/11/14 08:37:38;;;;;;;4.53;4.13;;;;;;;;;;5046945;28;20197;-85
2021/11/14 08:40:09;;;;;;;4.05;3.65;;;;;;;;;;5058276;28;20188;-83
2021/11/14 08:42:42;;;;;;;4.88;4.47;;;;;;;;;;5055614;28;20596;-85
2021/11/14 08:45:12;;;;;;;3.53;3.22;;;;;;;;;;5037114;28;20206;-86
2021/11/14 08:47:39;;;;;;;4.88;4.40;;;;;;;;;;5037986;28;20190;-85
2021/11/14 08:50:08;;;;;;;4.45;4.05;;;;;;;;;;5051396;28;20585;-85
2021/11/14 08:52:36;;;;;;;4.60;3.80;;;;;;;;;;5058055;28;20208;-85
2021/11/14 08:55:04;;;;;;;5.70;5.20;;;;;;;;;;5058613;28;20182;-85
2021/11/14 08:57:31;;;;;;;5.78;4.68;;;;;;;;;;5058460;28;20196;-85
2021/11/14 09:00:00;;;;;;;6.28;5.68;;;;;;;;;;5058907;28;20201;-85
2021/11/14 09:02:28;;;;;;;7.00;6.30;;;;;;;;;;5058810;28;20202;-83
2021/11/14 09:04:55;;;;;;;6.22;5.63;;;;;;;;;;5058535;28;20202;-85
2021/11/14 09:07:23;;;;;;;5.30;4.82;;;;;;;;;;5057564;28;20186;-86
2021/11/14 09:09:51;;;;;;;4.20;3.75;;;;;;;;;;5057291;28;20572;-86
2021/11/14 09:12:19;;;;;;;4.70;4.30;;;;;;;;;;5056926;28;20186;-84
2021/11/14 09:14:47;;;;;;;4.10;3.78;;;;;;;;;;5054667;28;20198;-85
2021/11/14 09:17:15;;;;;;;6.68;6.07;;;;;;;;;;5055625;28;20190;-87
2021/11/14 09:19:43;;;;;;;7.22;6.45;;;;;;;;;;5055277;28;20222;-85
2021/11/14 09:22:11;;;;;;;9.30;7.43;;;;;;;;;;5055004;28;20695;-85
2021/11/14 09:24:39;;;;;;;8.43;7.45;;;;;;;;;;5055264;28;20182;-85
2021/11/14 09:27:07;;;;;;;8.43;7.57;;;;;;;;;;5055301;28;20599;-84
2021/11/14 09:29:36;;;;;;;8.98;8.07;;;;;;;;;;5054972;28;20213;-85
2021/11/14 09:32:03;;;;;;;8.52;7.20;;;;;;;;;;5055214;28;20182;-85
2021/11/14 09:34:32;;;;;;;5.03;4.53;;;;;;;;;;5055266;28;20188;-85
2021/11/14 09:37:01;;;;;;;4.03;3.72;;;;;;;;;;5055276;28;20182;-86
2021/11/14 09:39:29;;;;;;;6.68;6.05;;;;;;;;;;5055119;28;20237;-84
2021/11/14 09:41:56;;;;;;;4.55;4.15;;;;;;;;;;5056602;28;20206;-86
2021/11/14 09:44:24;;;;;;;7.75;6.95;;;;;;;;;;5056332;28;20206;-85
2021/11/14 09:46:53;;;;;;;8.60;7.80;;;;;;;;;;5057153;28;20568;-85
2021/11/14 09:49:23;;;;;;;6.20;5.60;;;;;;;;;;5055294;28;20225;-85
2021/11/14 09:51:53;;;;;;;6.18;5.63;;;;;;;;;;5055728;28;20193;-86
2021/11/14 09:54:23;;;;;;;5.38;4.85;;;;;;;;;;5055790;28;20212;-85
2021/11/14 09:56:51;;;;;;;7.82;6.90;;;;;;;;;;5056015;28;20174;-85
2021/11/14 09:59:20;;;;;;;4.90;4.50;;;;;;;;;;5055569;28;20218;-87
2021/11/14 10:01:49;;;;;;;5.80;5.32;;;;;;;;;;5056927;28;20216;-86
2021/11/14 10:04:17;;;;;;;4.43;4.03;;;;;;;;;;5057156;28;20182;-86
2021/11/14 10:06:55;;;;;;;5.65;5.15;;;;;;;;;;5057060;28;20659;-84
2021/11/14 10:09:31;;;;;;;4.43;4.03;;;;;;;;;;5056478;28;20217;-85
2021/11/14 10:12:09;;;;;;;4.65;4.03;;;;;;;;;;5054890;28;20204;-85
2021/11/14 10:14:36;;;;;;;7.05;4.78;;;;;;;;;;5054267;28;20186;-86
2021/11/14 10:17:16;;;;;;;4.15;3.65;;;;;;;;;;5054638;28;20197;-85
2021/11/14 10:19:45;;;;;;;5.57;5.03;;;;;;;;;;5053596;28;20714;-86
2021/11/14 10:22:13;;;;;;;5.90;5.28;;;;;;;;;;5054102;28;20226;-85
2021/11/14 10:24:41;;;;;;;4.60;3.83;;;;;;;;;;5053949;28;20197;-86
2021/11/14 10:27:15;;;;;;;5.28;4.68;;;;;;;;;;5054405;28;20185;-85
2021/11/14 10:29:48;;;;;;;5.68;5.18;;;;;;;;;;5054057;28;20228;-85
2021/11/14 10:32:17;;;;;;;4.63;4.22;;;;;;;;;;5053977;28;20186;-86
2021/11/14 10:34:49;;;;;;;4.68;3.60;;;;;;;;;;5054011;28;20201;-86
2021/11/14 10:37:20;;;;;;;4.75;4.25;;;;;;;;;;5053774;28;20189;-85
2021/11/14 10:39:52;;;;;;;5.88;5.28;;;;;;;;;;5040923;28;20230;-86
2021/11/14 10:42:20;;;;;;;4.53;4.13;;;;;;;;;;5047131;28;20221;-86
2021/11/14 10:44:51;;;;;;;5.43;4.72;;;;;;;;;;5054677;28;20186;-86
2021/11/14 10:47:23;;;;;;;6.45;5.85;;;;;;;;;;5054717;28;20654;-85
2021/11/14 10:50:01;;;;;;;7.35;6.30;;;;;;;;;;5054311;28;20217;-86
2021/11/14 10:52:31;;;;;;;6.85;6.13;;;;;;;;;;5054472;28;20201;-85
2021/11/14 10:55:04;;;;;;;4.72;4.22;;;;;;;;;;5054444;28;20208;-86
2021/11/14 10:57:35;;;;;;;6.57;5.35;;;;;;;;;;5054050;28;20185;-86
2021/11/14 11:00:04;;;;;;;5.85;4.68;;;;;;;;;;5053992;28;20178;-86
2021/11/14 11:02:32;;;;;;;4.60;4.18;;;;;;;;;;5054494;28;20216;-86
2021/11/14 11:05:13;;;;;;;4.32;3.92;;;;;;;;;;5053764;28;20178;-85
2021/11/14 11:07:52;;;;;;;4.40;4.00;;;;;;;;;;5053800;28;20186;-86
2021/11/14 11:10:19;;;;;;;3.28;2.97;;;;;;;;;;5054820;28;20212;-85
2021/11/14 11:12:47;;;;;;;3.88;3.53;;;;;;;;;;5053645;28;20189;-86
2021/11/14 11:15:14;;;;;;;3.55;3.25;;;;;;;;;;5053316;28;20636;-86
2021/11/14 11:17:47;;;;;;;3.03;2.83;;;;;;;;;;5052885;28;20220;-86
2021/11/14 11:20:19;;;;;;;3.63;3.33;;;;;;;;;;5042963;28;20203;-86
2021/11/14 11:22:53;;;;;;;3.50;3.20;;;;;;;;;;5032852;28;20202;-86
2021/11/14 11:25:38;;;;;;;3.38;3.10;;;;;;;;;;5032985;28;20698;-86
2021/11/14 11:28:11;;;;;;;3.65;3.35;;;;;;;;;;5033268;28;20312;-86
2021/11/14 11:30:44;;;;;;;4.00;3.40;;;;;;;;;;5032836;28;20209;-86
2021/11/14 11:33:12;;;;;;;4.00;3.33;;;;;;;;;;5032378;28;20191;-86
2021/11/14 11:35:39;;;;;;;3.88;3.50;;;;;;;;;;5032841;28;20268;-86
2021/11/14 11:38:08;;;;;;;4.35;3.95;;;;;;;;;;5032933;28;20236;-86
2021/11/14 11:40:36;;;;;;;4.18;3.88;;;;;;;;;;5032823;28;20289;-86
2021/11/14 11:43:04;;;;;;;3.72;3.42;;;;;;;;;;5032839;28;20206;-86
2021/11/14 11:45:34;;;;;;;3.15;2.85;;;;;;;;;;5033006;28;20222;-86
2021/11/14 11:48:04;;;;;;;3.80;3.42;;;;;;;;;;5033069;28;20222;-86
2021/11/14 11:50:35;;;;;;;3.60;3.30;;;;;;;;;;5033204;28;20209;-86
2021/11/14 11:53:04;;;;;;;4.20;3.42;;;;;;;;;;5032962;28;20183;-86
2021/11/14 11:55:36;;;;;;;3.50;3.20;;;;;;;;;;5033218;28;20190;-86
2021/11/14 11:58:15;;;;;;;4.05;3.75;;;;;;;;;;5032640;28;20222;-86
2021/11/14 12:00:56;;;;;;;5.30;4.90;;;;;;;;;;5033582;28;20237;-85
2021/11/14 12:03:34;;;;;;;4.20;3.45;;;;;;;;;;5036148;28;20256;-85
2021/11/14 12:06:16;;;;;;;4.68;4.10;;;;;;;;;;5033212;28;20190;-85
2021/11/14 12:08:47;;;;;;;4.28;3.88;;;;;;;;;;5033097;28;20222;-86
2021/11/14 12:11:31;;;;;;;4.10;3.72;;;;;;;;;;5033025;28;20206;-86
2021/11/14 12:14:01;;;;;;;3.63;3.33;;;;;;;;;;5033015;28;20234;-86
2021/11/14 12:16:32;;;;;;;4.82;4.35;;;;;;;;;;5033114;28;20191;-86
2021/11/14 12:19:00;;;;;;;4.55;4.15;;;;;;;;;;5032888;28;20226;-86
2021/11/14 12:21:31;;;;;;;4.90;4.43;;;;;;;;;;5033192;28;20175;-86
2021/11/14 12:24:02;;;;;;;3.88;3.58;;;;;;;;;;5032733;28;20206;-86
2021/11/14 12:26:36;;;;;;;3.80;3.50;;;;;;;;;;5033175;28;20213;-86
2021/11/14 12:29:08;;;;;;;4.03;3.65;;;;;;;;;;5033121;28;20224;-86
2021/11/14 12:31:49;;;;;;;4.45;4.00;;;;;;;;;;5033420;28;20179;-86
2021/11/14 12:34:29;;;;;;;3.15;2.85;;;;;;;;;;5032953;28;20728;-85
2021/11/14 12:37:09;;;;;;;3.85;3.45;;;;;;;;;;5033222;28;20182;-85
2021/11/14 12:39:38;;;;;;;4.15;3.85;;;;;;;;;;5032933;28;20241;-86
2021/11/14 12:42:09;;;;;;;4.80;4.20;;;;;;;;;;5033374;28;20198;-85
2021/11/14 12:44:41;;;;;;;4.75;4.32;;;;;;;;;;5035794;28;20225;-85
2021/11/14 12:47:28;;;;;;;4.80;4.40;;;;;;;;;;5036901;28;20209;-86
2021/11/14 12:50:11;;;;;;;3.75;3.42;;;;;;;;;;5037157;28;20815;-86
2021/11/14 12:52:41;;;;;;;5.18;4.68;;;;;;;;;;5036544;28;20183;-86
2021/11/14 12:55:15;;;;;;;5.45;4.95;;;;;;;;;;5036584;28;20187;-86
2021/11/14 12:57:48;;;;;;;4.07;3.75;;;;;;;;;;5036832;28;20190;-86
2021/11/14 13:00:28;;;;;;;3.70;3.40;;;;;;;;;;5037421;28;20281;-86
2021/11/14 13:02:56;;;;;;;5.25;4.20;;;;;;;;;;5036984;28;20187;-85
2021/11/14 13:05:25;;;;;;;5.10;4.60;;;;;;;;;;5036699;28;20175;-86
2021/11/14 13:07:59;;;;;;;5.85;5.35;;;;;;;;;;5036536;28;20592;-85
2021/11/14 13:10:28;;;;;;;5.03;4.63;;;;;;;;;;5036585;28;20182;-86
2021/11/14 13:12:57;;;;;;;4.75;4.35;;;;;;;;;;5036433;28;20205;-86
2021/11/14 13:15:25;;;;;;;4.88;4.35;;;;;;;;;;5036301;28;20289;-85
2021/11/14 13:17:57;;;;;;;3.88;3.58;;;;;;;;;;5036540;28;20232;-86
2021/11/14 13:20:27;;;;;;;3.53;3.22;;;;;;;;;;5036553;28;20197;-86
2021/11/14 13:22:56;;;;;;;4.30;3.90;;;;;;;;;;5036118;28;20261;-86
2021/11/14 13:25:28;;;;;;;3.22;3.03;;;;;;;;;;5036594;28;20186;-85
2021/11/14 13:27:58;;;;;;;4.18;3.78;;;;;;;;;;5036695;28;20237;-85
2021/11/14 13:30:29;;;;;;;4.30;3.70;;;;;;;;;;5036652;28;20199;-86
2021/11/14 13:33:01;;;;;;;3.97;3.60;;;;;;;;;;5036822;28;20182;-85
2021/11/14 13:35:29;;;;;;;3.92;3.53;;;;;;;;;;5036652;28;20206;-86
2021/11/14 13:38:01;;;;;;;3.20;2.90;;;;;;;;;;5036497;28;20240;-86
2021/11/14 13:40:29;;;;;;;4.53;3.92;;;;;;;;;;5037152;28;20206;-86
2021/11/14 13:43:00;;;;;;;3.28;2.97;;;;;;;;;;5037143;28;20584;-86
2021/11/14 13:45:31;;;;;;;3.08;2.78;;;;;;;;;;5036560;28;20260;-85
2021/11/14 13:48:02;;;;;;;3.63;3.33;;;;;;;;;;5036369;28;20230;-86
2021/11/14 13:50:34;;;;;;;3.35;3.05;;;;;;;;;;5036339;28;20644;-86
2021/11/14 13:53:16;;;;;;;4.95;3.78;;;;;;;;;;5036013;28;20179;-86
2021/11/14 13:55:51;;;;;;;3.30;3.10;;;;;;;;;;5035654;28;20183;-86
2021/11/14 13:58:21;;;;;;;3.65;3.42;;;;;;;;;;5036471;28;20304;-86
2021/11/14 14:00:50;;;;;;;3.55;3.13;;;;;;;;;;5036267;28;20187;-85
2021/11/14 14:03:22;;;;;;;4.70;4.30;;;;;;;;;;5036168;28;20183;-86
2021/11/14 14:05:51;;;;;;;3.88;3.58;;;;;;;;;;5036048;28;20237;-85
2021/11/14 14:08:27;;;;;;;4.40;4.00;;;;;;;;;;5035934;28;20220;-86
2021/11/14 14:10:54;;;;;;;10.70;9.80;;;;;;;;;;5035592;28;20270;-85
2021/11/14 14:13:23;;;;;;;8.00;7.30;;;;;;;;;;5036061;28;20187;-85
2021/11/14 14:15:52;;;;;;;6.32;5.82;;;;;;;;;;5036203;28;20182;-86
2021/11/14 14:18:22;;;;;;;6.60;6.00;;;;;;;;;;5035914;28;20225;-85
2021/11/14 14:20:59;;;;;;;6.43;5.90;;;;;;;;;;5035745;28;20197;-86
2021/11/14 14:23:27;;;;;;;6.03;5.53;;;;;;;;;;5036123;28;20212;-85
2021/11/14 14:25:55;;;;;;;9.98;9.18;;;;;;;;;;5035823;28;20198;-86
2021/11/14 14:28:28;;;;;;;8.68;7.88;;;;;;;;;;5035632;28;20234;-86
2021/11/14 14:30:58;;;;;;;6.57;5.95;;;;;;;;;;5035616;28;20191;-86
2021/11/14 14:33:28;;;;;;;5.68;5.18;;;;;;;;;;5035546;28;20671;-86
2021/11/14 14:35:59;;;;;;;6.18;5.60;;;;;;;;;;5035448;28;20668;-86
2021/11/14 14:38:29;;;;;;;6.40;5.78;;;;;;;;;;5035353;28;20234;-86
2021/11/14 14:40:59;;;;;;;6.13;5.53;;;;;;;;;;5035410;28;20179;-86
2021/11/14 14:43:33;;;;;;;5.07;4.57;;;;;;;;;;5035757;28;20198;-85
2021/11/14 14:46:04;;;;;;;5.07;4.45;;;;;;;;;;5035520;28;20210;-86
2021/11/14 14:48:34;;;;;;;4.70;4.30;;;;;;;;;;5036479;28;20219;-85
2021/11/14 14:51:06;;;;;;;6.78;5.88;;;;;;;;;;5039126;28;20581;-84
2021/11/14 14:53:36;;;;;;;6.40;5.80;;;;;;;;;;5044386;28;20182;-86
2021/11/14 14:56:12;;;;;;;5.82;5.32;;;;;;;;;;5044080;28;20205;-85
2021/11/14 14:58:53;;;;;;;4.30;3.80;;;;;;;;;;5044411;28;20210;-84
2021/11/14 15:01:28;;;;;;;4.68;4.18;;;;;;;;;;5046099;28;20197;-85
2021/11/14 15:03:56;;;;;;;5.38;4.88;;;;;;;;;;5044548;28;20281;-85
2021/11/14 15:06:26;;;;;;;5.40;4.72;;;;;;;;;;5044218;28;20258;-85
2021/11/14 15:08:55;;;;;;;5.03;4.63;;;;;;;;;;5044490;28;20226;-85
2021/11/14 15:11:32;;;;;;;4.45;4.05;;;;;;;;;;5043947;28;20210;-85
2021/11/14 15:14:01;;;;;;;4.55;4.15;;;;;;;;;;5043760;28;20186;-85
2021/11/14 15:16:29;;;;;;;5.15;4.45;;;;;;;;;;5043612;28;20195;-85
2021/11/14 15:18:56;;;;;;;5.22;4.50;;;;;;;;;;5043883;28;20281;-85
2021/11/14 15:21:25;;;;;;;6.85;6.13;;;;;;;;;;5043956;28;20198;-86
2021/11/14 15:23:52;;;;;;;7.50;6.68;;;;;;;;;;5044614;28;20215;-85
2021/11/14 15:26:20;;;;;;;7.03;5.75;;;;;;;;;;5045061;28;20217;-85
2021/11/14 15:28:49;;;;;;;6.53;5.82;;;;;;;;;;5044349;28;20246;-85